Aviation Digital Data Service (ADDS)

Output produced by METARs form (2102 UTC 21 February 2017)
found at http://aviationweather.gov/adds/metars/
 
KBAF 211738Z 2118/2218 18007KT P6SM BKN250 
     FM220600 18004KT P6SM OVC090 
     FM220900 VRB03KT P6SM VCSH OVC025 
     FM221100 00000KT 3SM BR BKN015 
     FM221500 00000KT P6SM BKN015